sensor_id;sensor_type;location;lat;lon;timestamp;P1;durP1;ratioP1;P2;durP2;ratioP2
2462;SDS011;1243;54.298;10.172;2022-07-10T00:00:14;4.30;;;2.00;;
2462;SDS011;1243;54.298;10.172;2022-07-10T00:02:40;3.27;;;2.00;;
2462;SDS011;1243;54.298;10.172;2022-07-10T00:05:07;2.20;;;1.53;;
2462;SDS011;1243;54.298;10.172;2022-07-10T00:07:34;2.60;;;1.60;;
2462;SDS011;1243;54.298;10.172;2022-07-10T00:10:00;5.83;;;2.17;;
2462;SDS011;1243;54.298;10.172;2022-07-10T00:12:26;2.93;;;1.87;;
2462;SDS011;1243;54.298;10.172;2022-07-10T00:14:52;6.83;;;2.03;;
2462;SDS011;1243;54.298;10.172;2022-07-10T00:17:18;2.67;;;2.00;;
2462;SDS011;1243;54.298;10.172;2022-07-10T00:19:43;5.77;;;2.23;;
2462;SDS011;1243;54.298;10.172;2022-07-10T00:22:09;5.07;;;1.83;;
2462;SDS011;1243;54.298;10.172;2022-07-10T00:24:35;2.17;;;1.57;;
2462;SDS011;1243;54.298;10.172;2022-07-10T00:27:00;1.93;;;1.73;;
2462;SDS011;1243;54.298;10.172;2022-07-10T00:29:26;4.27;;;1.50;;
2462;SDS011;1243;54.298;10.172;2022-07-10T00:31:52;2.83;;;1.90;;
2462;SDS011;1243;54.298;10.172;2022-07-10T00:34:17;5.47;;;2.07;;
2462;SDS011;1243;54.298;10.172;2022-07-10T00:36:43;8.10;;;3.20;;
2462;SDS011;1243;54.298;10.172;2022-07-10T00:39:09;8.30;;;2.57;;
2462;SDS011;1243;54.298;10.172;2022-07-10T00:41:35;2.73;;;1.53;;
2462;SDS011;1243;54.298;10.172;2022-07-10T00:44:01;4.63;;;1.80;;
2462;SDS011;1243;54.298;10.172;2022-07-10T00:46:28;3.03;;;1.57;;
2462;SDS011;1243;54.298;10.172;2022-07-10T00:48:55;11.30;;;2.40;;
2462;SDS011;1243;54.298;10.172;2022-07-10T00:51:23;10.57;;;2.03;;
2462;SDS011;1243;54.298;10.172;2022-07-10T00:53:51;2.70;;;1.87;;
2462;SDS011;1243;54.298;10.172;2022-07-10T00:56:18;2.97;;;2.23;;
2462;SDS011;1243;54.298;10.172;2022-07-10T00:58:46;5.17;;;2.33;;
2462;SDS011;1243;54.298;10.172;2022-07-10T01:01:13;4.13;;;1.93;;
2462;SDS011;1243;54.298;10.172;2022-07-10T01:03:39;6.10;;;2.07;;
2462;SDS011;1243;54.298;10.172;2022-07-10T01:06:05;3.87;;;2.30;;
2462;SDS011;1243;54.298;10.172;2022-07-10T01:08:31;2.43;;;1.90;;
2462;SDS011;1243;54.298;10.172;2022-07-10T01:10:57;6.40;;;2.37;;
2462;SDS011;1243;54.298;10.172;2022-07-10T01:13:23;7.90;;;2.10;;
2462;SDS011;1243;54.298;10.172;2022-07-10T01:15:49;4.77;;;1.87;;
2462;SDS011;1243;54.298;10.172;2022-07-10T01:18:17;4.10;;;2.20;;
2462;SDS011;1243;54.298;10.172;2022-07-10T01:20:43;7.97;;;2.20;;
2462;SDS011;1243;54.298;10.172;2022-07-10T01:23:09;3.40;;;1.87;;
2462;SDS011;1243;54.298;10.172;2022-07-10T01:25:34;3.40;;;2.27;;
2462;SDS011;1243;54.298;10.172;2022-07-10T01:28:00;5.13;;;2.20;;
2462;SDS011;1243;54.298;10.172;2022-07-10T01:30:26;2.90;;;2.17;;
2462;SDS011;1243;54.298;10.172;2022-07-10T01:32:52;3.37;;;1.83;;
2462;SDS011;1243;54.298;10.172;2022-07-10T01:35:18;7.53;;;2.10;;
2462;SDS011;1243;54.298;10.172;2022-07-10T01:37:44;4.23;;;1.63;;
2462;SDS011;1243;54.298;10.172;2022-07-10T01:40:10;4.27;;;2.10;;
2462;SDS011;1243;54.298;10.172;2022-07-10T01:42:37;6.47;;;2.60;;
2462;SDS011;1243;54.298;10.172;2022-07-10T01:45:04;8.07;;;2.27;;
2462;SDS011;1243;54.298;10.172;2022-07-10T01:47:33;7.00;;;2.97;;
2462;SDS011;1243;54.298;10.172;2022-07-10T01:49:59;9.97;;;2.40;;
2462;SDS011;1243;54.298;10.172;2022-07-10T01:52:25;5.93;;;2.20;;
2462;SDS011;1243;54.298;10.172;2022-07-10T01:54:50;5.53;;;2.63;;
2462;SDS011;1243;54.298;10.172;2022-07-10T01:57:16;4.37;;;2.40;;
2462;SDS011;1243;54.298;10.172;2022-07-10T01:59:42;3.10;;;1.90;;
2462;SDS011;1243;54.298;10.172;2022-07-10T02:02:08;2.70;;;2.50;;
2462;SDS011;1243;54.298;10.172;2022-07-10T02:04:34;8.10;;;2.20;;
2462;SDS011;1243;54.298;10.172;2022-07-10T02:07:09;8.13;;;2.57;;
2462;SDS011;1243;54.298;10.172;2022-07-10T02:09:36;14.83;;;2.63;;
2462;SDS011;1243;54.298;10.172;2022-07-10T02:12:04;10.70;;;2.40;;
2462;SDS011;1243;54.298;10.172;2022-07-10T02:14:31;2.50;;;2.07;;
2462;SDS011;1243;54.298;10.172;2022-07-10T02:16:57;6.13;;;2.43;;
2462;SDS011;1243;54.298;10.172;2022-07-10T02:19:23;5.60;;;2.23;;
2462;SDS011;1243;54.298;10.172;2022-07-10T02:21:49;11.40;;;3.10;;
2462;SDS011;1243;54.298;10.172;2022-07-10T02:24:15;4.20;;;2.40;;
2462;SDS011;1243;54.298;10.172;2022-07-10T02:26:40;4.23;;;1.90;;
2462;SDS011;1243;54.298;10.172;2022-07-10T02:29:06;2.17;;;2.03;;
2462;SDS011;1243;54.298;10.172;2022-07-10T02:31:31;4.93;;;2.80;;
2462;SDS011;1243;54.298;10.172;2022-07-10T02:33:59;5.23;;;3.90;;
2462;SDS011;1243;54.298;10.172;2022-07-10T02:36:26;6.77;;;3.77;;
2462;SDS011;1243;54.298;10.172;2022-07-10T02:38:52;5.73;;;2.80;;
2462;SDS011;1243;54.298;10.172;2022-07-10T02:41:17;5.37;;;2.43;;
2462;SDS011;1243;54.298;10.172;2022-07-10T02:43:43;9.80;;;2.97;;
2462;SDS011;1243;54.298;10.172;2022-07-10T02:46:09;4.60;;;2.43;;
2462;SDS011;1243;54.298;10.172;2022-07-10T02:48:34;14.00;;;3.07;;
2462;SDS011;1243;54.298;10.172;2022-07-10T02:51:00;5.17;;;2.20;;
2462;SDS011;1243;54.298;10.172;2022-07-10T02:53:26;5.50;;;2.73;;
2462;SDS011;1243;54.298;10.172;2022-07-10T02:55:51;6.67;;;2.73;;
2462;SDS011;1243;54.298;10.172;2022-07-10T02:58:17;7.73;;;2.50;;
2462;SDS011;1243;54.298;10.172;2022-07-10T03:00:44;7.87;;;2.60;;
2462;SDS011;1243;54.298;10.172;2022-07-10T03:03:10;7.57;;;2.53;;
2462;SDS011;1243;54.298;10.172;2022-07-10T03:05:36;9.20;;;2.80;;
2462;SDS011;1243;54.298;10.172;2022-07-10T03:08:01;6.20;;;2.97;;
2462;SDS011;1243;54.298;10.172;2022-07-10T03:10:27;7.20;;;2.70;;
2462;SDS011;1243;54.298;10.172;2022-07-10T03:12:53;9.10;;;2.70;;
2462;SDS011;1243;54.298;10.172;2022-07-10T03:15:18;7.47;;;3.10;;
2462;SDS011;1243;54.298;10.172;2022-07-10T03:17:44;6.27;;;2.67;;
2462;SDS011;1243;54.298;10.172;2022-07-10T03:20:10;12.10;;;2.90;;
2462;SDS011;1243;54.298;10.172;2022-07-10T03:22:36;6.30;;;2.30;;
2462;SDS011;1243;54.298;10.172;2022-07-10T03:25:02;6.93;;;2.43;;
2462;SDS011;1243;54.298;10.172;2022-07-10T03:27:28;5.23;;;2.70;;
2462;SDS011;1243;54.298;10.172;2022-07-10T03:29:54;10.33;;;3.20;;
2462;SDS011;1243;54.298;10.172;2022-07-10T03:32:19;8.07;;;2.93;;
2462;SDS011;1243;54.298;10.172;2022-07-10T03:34:45;9.37;;;2.70;;
2462;SDS011;1243;54.298;10.172;2022-07-10T03:37:11;9.40;;;2.90;;
2462;SDS011;1243;54.298;10.172;2022-07-10T03:39:37;4.73;;;2.53;;
2462;SDS011;1243;54.298;10.172;2022-07-10T03:42:02;15.07;;;2.90;;
2462;SDS011;1243;54.298;10.172;2022-07-10T03:44:28;6.10;;;2.47;;
2462;SDS011;1243;54.298;10.172;2022-07-10T03:46:54;10.30;;;2.53;;
2462;SDS011;1243;54.298;10.172;2022-07-10T03:49:20;4.07;;;2.23;;
2462;SDS011;1243;54.298;10.172;2022-07-10T03:51:45;14.43;;;2.63;;
2462;SDS011;1243;54.298;10.172;2022-07-10T03:54:11;6.90;;;2.10;;
2462;SDS011;1243;54.298;10.172;2022-07-10T03:56:37;8.33;;;3.13;;
2462;SDS011;1243;54.298;10.172;2022-07-10T03:59:21;12.27;;;2.57;;
2462;SDS011;1243;54.298;10.172;2022-07-10T04:01:46;3.10;;;2.27;;
2462;SDS011;1243;54.298;10.172;2022-07-10T04:04:12;6.83;;;1.97;;
2462;SDS011;1243;54.298;10.172;2022-07-10T04:06:38;5.83;;;2.70;;
2462;SDS011;1243;54.298;10.172;2022-07-10T04:09:04;4.30;;;2.77;;
2462;SDS011;1243;54.298;10.172;2022-07-10T04:11:30;4.77;;;2.17;;
2462;SDS011;1243;54.298;10.172;2022-07-10T04:13:56;5.13;;;2.40;;
2462;SDS011;1243;54.298;10.172;2022-07-10T04:16:22;7.77;;;2.57;;
2462;SDS011;1243;54.298;10.172;2022-07-10T04:18:48;5.00;;;2.43;;
2462;SDS011;1243;54.298;10.172;2022-07-10T04:21:13;7.00;;;2.93;;
2462;SDS011;1243;54.298;10.172;2022-07-10T04:23:39;6.60;;;2.20;;
2462;SDS011;1243;54.298;10.172;2022-07-10T04:26:05;7.67;;;2.43;;
2462;SDS011;1243;54.298;10.172;2022-07-10T04:28:31;6.50;;;2.80;;
2462;SDS011;1243;54.298;10.172;2022-07-10T04:30:57;5.60;;;2.57;;
2462;SDS011;1243;54.298;10.172;2022-07-10T04:33:22;10.37;;;2.40;;
2462;SDS011;1243;54.298;10.172;2022-07-10T04:35:48;5.10;;;2.40;;
2462;SDS011;1243;54.298;10.172;2022-07-10T04:38:14;5.00;;;2.23;;
2462;SDS011;1243;54.298;10.172;2022-07-10T04:40:40;9.13;;;2.77;;
2462;SDS011;1243;54.298;10.172;2022-07-10T04:43:05;6.80;;;2.33;;
2462;SDS011;1243;54.298;10.172;2022-07-10T04:45:31;6.03;;;2.20;;
2462;SDS011;1243;54.298;10.172;2022-07-10T04:47:57;7.73;;;2.30;;
2462;SDS011;1243;54.298;10.172;2022-07-10T04:50:22;4.77;;;2.63;;
2462;SDS011;1243;54.298;10.172;2022-07-10T04:52:48;5.00;;;2.00;;
2462;SDS011;1243;54.298;10.172;2022-07-10T04:55:14;3.87;;;1.97;;
2462;SDS011;1243;54.298;10.172;2022-07-10T04:57:39;8.23;;;1.90;;
2462;SDS011;1243;54.298;10.172;2022-07-10T05:00:09;8.80;;;2.33;;
2462;SDS011;1243;54.298;10.172;2022-07-10T05:02:35;7.70;;;3.33;;
2462;SDS011;1243;54.298;10.172;2022-07-10T05:05:01;3.83;;;1.93;;
2462;SDS011;1243;54.298;10.172;2022-07-10T05:07:27;6.43;;;2.80;;
2462;SDS011;1243;54.298;10.172;2022-07-10T05:09:53;6.13;;;2.00;;
2462;SDS011;1243;54.298;10.172;2022-07-10T05:12:19;23.97;;;2.57;;
2462;SDS011;1243;54.298;10.172;2022-07-10T05:14:44;3.83;;;2.60;;
2462;SDS011;1243;54.298;10.172;2022-07-10T05:17:10;3.73;;;2.13;;
2462;SDS011;1243;54.298;10.172;2022-07-10T05:19:36;4.73;;;2.33;;
2462;SDS011;1243;54.298;10.172;2022-07-10T05:22:01;13.13;;;2.60;;
2462;SDS011;1243;54.298;10.172;2022-07-10T05:24:27;4.67;;;2.23;;
2462;SDS011;1243;54.298;10.172;2022-07-10T05:26:53;3.50;;;1.60;;
2462;SDS011;1243;54.298;10.172;2022-07-10T05:29:18;5.63;;;2.43;;
2462;SDS011;1243;54.298;10.172;2022-07-10T05:31:44;6.17;;;1.93;;
2462;SDS011;1243;54.298;10.172;2022-07-10T05:34:10;8.73;;;2.10;;
2462;SDS011;1243;54.298;10.172;2022-07-10T05:36:35;8.97;;;2.13;;
2462;SDS011;1243;54.298;10.172;2022-07-10T05:39:01;8.13;;;2.70;;
2462;SDS011;1243;54.298;10.172;2022-07-10T05:41:27;9.83;;;1.90;;
2462;SDS011;1243;54.298;10.172;2022-07-10T05:43:53;6.17;;;1.90;;
2462;SDS011;1243;54.298;10.172;2022-07-10T05:46:19;6.20;;;2.97;;
2462;SDS011;1243;54.298;10.172;2022-07-10T05:48:44;3.07;;;1.77;;
2462;SDS011;1243;54.298;10.172;2022-07-10T05:51:10;9.87;;;2.00;;
2462;SDS011;1243;54.298;10.172;2022-07-10T05:53:36;4.93;;;1.87;;
2462;SDS011;1243;54.298;10.172;2022-07-10T05:56:02;4.23;;;1.70;;
2462;SDS011;1243;54.298;10.172;2022-07-10T05:58:28;4.90;;;2.17;;
2462;SDS011;1243;54.298;10.172;2022-07-10T06:00:54;10.00;;;2.40;;
2462;SDS011;1243;54.298;10.172;2022-07-10T06:03:20;8.07;;;2.90;;
2462;SDS011;1243;54.298;10.172;2022-07-10T06:05:46;8.13;;;2.80;;
2462;SDS011;1243;54.298;10.172;2022-07-10T06:08:12;9.63;;;2.17;;
2462;SDS011;1243;54.298;10.172;2022-07-10T06:10:38;5.53;;;2.40;;
2462;SDS011;1243;54.298;10.172;2022-07-10T06:13:05;5.53;;;1.77;;
2462;SDS011;1243;54.298;10.172;2022-07-10T06:15:31;7.60;;;1.60;;
2462;SDS011;1243;54.298;10.172;2022-07-10T06:17:57;5.00;;;2.50;;
2462;SDS011;1243;54.298;10.172;2022-07-10T06:20:24;4.23;;;1.73;;
2462;SDS011;1243;54.298;10.172;2022-07-10T06:22:50;7.27;;;2.27;;
2462;SDS011;1243;54.298;10.172;2022-07-10T06:25:16;6.43;;;1.80;;
2462;SDS011;1243;54.298;10.172;2022-07-10T06:27:41;6.00;;;1.53;;
2462;SDS011;1243;54.298;10.172;2022-07-10T06:30:07;3.33;;;1.87;;
2462;SDS011;1243;54.298;10.172;2022-07-10T06:32:33;7.37;;;2.10;;
2462;SDS011;1243;54.298;10.172;2022-07-10T06:34:59;6.60;;;1.93;;
2462;SDS011;1243;54.298;10.172;2022-07-10T06:37:25;8.47;;;2.30;;
2462;SDS011;1243;54.298;10.172;2022-07-10T06:39:51;5.93;;;2.00;;
2462;SDS011;1243;54.298;10.172;2022-07-10T06:42:16;6.07;;;2.23;;
2462;SDS011;1243;54.298;10.172;2022-07-10T06:44:42;5.90;;;2.93;;
2462;SDS011;1243;54.298;10.172;2022-07-10T06:47:09;13.07;;;1.50;;
2462;SDS011;1243;54.298;10.172;2022-07-10T06:49:55;5.20;;;2.13;;
2462;SDS011;1243;54.298;10.172;2022-07-10T06:52:21;3.30;;;2.10;;
2462;SDS011;1243;54.298;10.172;2022-07-10T06:54:47;4.37;;;2.13;;
2462;SDS011;1243;54.298;10.172;2022-07-10T06:57:13;10.60;;;2.17;;
2462;SDS011;1243;54.298;10.172;2022-07-10T06:59:38;4.90;;;1.90;;
2462;SDS011;1243;54.298;10.172;2022-07-10T07:02:04;7.37;;;2.60;;
2462;SDS011;1243;54.298;10.172;2022-07-10T07:04:30;1.97;;;1.70;;
2462;SDS011;1243;54.298;10.172;2022-07-10T07:06:56;2.80;;;1.63;;
2462;SDS011;1243;54.298;10.172;2022-07-10T07:09:21;5.53;;;1.63;;
2462;SDS011;1243;54.298;10.172;2022-07-10T07:11:47;3.70;;;2.00;;
2462;SDS011;1243;54.298;10.172;2022-07-10T07:14:13;2.00;;;1.30;;
2462;SDS011;1243;54.298;10.172;2022-07-10T07:16:38;3.77;;;1.57;;
2462;SDS011;1243;54.298;10.172;2022-07-10T07:19:07;7.70;;;2.13;;
2462;SDS011;1243;54.298;10.172;2022-07-10T07:21:36;5.80;;;1.60;;
2462;SDS011;1243;54.298;10.172;2022-07-10T07:24:20;4.90;;;1.73;;
2462;SDS011;1243;54.298;10.172;2022-07-10T07:26:46;4.77;;;1.50;;
2462;SDS011;1243;54.298;10.172;2022-07-10T07:29:13;7.47;;;1.73;;
2462;SDS011;1243;54.298;10.172;2022-07-10T07:31:40;6.00;;;1.60;;
2462;SDS011;1243;54.298;10.172;2022-07-10T07:34:05;4.67;;;1.60;;
2462;SDS011;1243;54.298;10.172;2022-07-10T07:36:31;3.73;;;1.30;;
2462;SDS011;1243;54.298;10.172;2022-07-10T07:38:57;3.97;;;1.47;;
2462;SDS011;1243;54.298;10.172;2022-07-10T07:41:23;5.40;;;1.57;;
2462;SDS011;1243;54.298;10.172;2022-07-10T07:43:48;5.53;;;1.57;;
2462;SDS011;1243;54.298;10.172;2022-07-10T07:46:14;2.10;;;1.43;;
2462;SDS011;1243;54.298;10.172;2022-07-10T07:48:40;5.00;;;1.40;;
2462;SDS011;1243;54.298;10.172;2022-07-10T07:51:07;6.23;;;2.03;;
2462;SDS011;1243;54.298;10.172;2022-07-10T07:53:32;3.50;;;1.20;;
2462;SDS011;1243;54.298;10.172;2022-07-10T07:55:58;4.47;;;2.13;;
2462;SDS011;1243;54.298;10.172;2022-07-10T07:58:24;3.03;;;1.47;;
2462;SDS011;1243;54.298;10.172;2022-07-10T08:00:50;4.43;;;1.67;;
2462;SDS011;1243;54.298;10.172;2022-07-10T08:03:15;4.57;;;1.47;;
2462;SDS011;1243;54.298;10.172;2022-07-10T08:05:41;5.10;;;1.50;;
2462;SDS011;1243;54.298;10.172;2022-07-10T08:08:07;3.00;;;1.43;;
2462;SDS011;1243;54.298;10.172;2022-07-10T08:10:35;4.93;;;1.83;;
2462;SDS011;1243;54.298;10.172;2022-07-10T08:13:01;5.77;;;1.77;;
2462;SDS011;1243;54.298;10.172;2022-07-10T08:15:28;2.80;;;1.63;;
2462;SDS011;1243;54.298;10.172;2022-07-10T08:17:55;6.00;;;2.07;;
2462;SDS011;1243;54.298;10.172;2022-07-10T08:20:22;4.63;;;1.30;;
2462;SDS011;1243;54.298;10.172;2022-07-10T08:22:50;3.03;;;1.50;;
2462;SDS011;1243;54.298;10.172;2022-07-10T08:25:18;6.70;;;2.00;;
2462;SDS011;1243;54.298;10.172;2022-07-10T08:27:44;1.33;;;1.23;;
2462;SDS011;1243;54.298;10.172;2022-07-10T08:30:10;8.93;;;1.90;;
2462;SDS011;1243;54.298;10.172;2022-07-10T08:32:37;2.20;;;1.50;;
2462;SDS011;1243;54.298;10.172;2022-07-10T08:35:03;2.00;;;1.20;;
2462;SDS011;1243;54.298;10.172;2022-07-10T08:37:36;3.73;;;1.43;;
2462;SDS011;1243;54.298;10.172;2022-07-10T08:40:03;3.57;;;1.30;;
2462;SDS011;1243;54.298;10.172;2022-07-10T08:42:29;3.20;;;1.23;;
2462;SDS011;1243;54.298;10.172;2022-07-10T08:44:57;8.50;;;2.07;;
2462;SDS011;1243;54.298;10.172;2022-07-10T08:47:24;4.30;;;1.63;;
2462;SDS011;1243;54.298;10.172;2022-07-10T08:49:50;5.27;;;1.60;;
2462;SDS011;1243;54.298;10.172;2022-07-10T08:52:26;9.73;;;1.30;;
2462;SDS011;1243;54.298;10.172;2022-07-10T08:54:55;2.77;;;1.27;;
2462;SDS011;1243;54.298;10.172;2022-07-10T08:57:22;7.97;;;2.00;;
2462;SDS011;1243;54.298;10.172;2022-07-10T08:59:49;6.93;;;1.53;;
2462;SDS011;1243;54.298;10.172;2022-07-10T09:02:15;3.30;;;1.10;;
2462;SDS011;1243;54.298;10.172;2022-07-10T09:04:41;4.17;;;1.20;;
2462;SDS011;1243;54.298;10.172;2022-07-10T09:07:06;6.23;;;1.60;;
2462;SDS011;1243;54.298;10.172;2022-07-10T09:09:37;6.60;;;1.23;;
2462;SDS011;1243;54.298;10.172;2022-07-10T09:12:23;6.20;;;1.97;;
2462;SDS011;1243;54.298;10.172;2022-07-10T09:14:49;6.53;;;1.43;;
2462;SDS011;1243;54.298;10.172;2022-07-10T09:17:19;7.23;;;1.30;;
2462;SDS011;1243;54.298;10.172;2022-07-10T09:19:45;7.27;;;2.10;;
2462;SDS011;1243;54.298;10.172;2022-07-10T09:22:12;4.80;;;1.40;;
2462;SDS011;1243;54.298;10.172;2022-07-10T09:24:46;2.80;;;1.57;;
2462;SDS011;1243;54.298;10.172;2022-07-10T09:27:12;4.60;;;1.67;;
2462;SDS011;1243;54.298;10.172;2022-07-10T09:29:47;9.23;;;1.40;;
2462;SDS011;1243;54.298;10.172;2022-07-10T09:32:15;4.20;;;1.17;;
2462;SDS011;1243;54.298;10.172;2022-07-10T09:34:45;3.63;;;1.90;;
2462;SDS011;1243;54.298;10.172;2022-07-10T09:37:37;7.73;;;1.97;;
2462;SDS011;1243;54.298;10.172;2022-07-10T09:40:05;4.70;;;1.83;;
2462;SDS011;1243;54.298;10.172;2022-07-10T09:42:36;7.13;;;3.20;;
2462;SDS011;1243;54.298;10.172;2022-07-10T09:47:41;3.40;;;2.53;;
2462;SDS011;1243;54.298;10.172;2022-07-10T09:50:29;5.30;;;2.53;;
2462;SDS011;1243;54.298;10.172;2022-07-10T09:53:03;3.10;;;2.70;;
2462;SDS011;1243;54.298;10.172;2022-07-10T09:55:31;3.27;;;1.70;;
2462;SDS011;1243;54.298;10.172;2022-07-10T09:57:59;5.93;;;2.00;;
2462;SDS011;1243;54.298;10.172;2022-07-10T10:00:27;7.00;;;2.40;;
2462;SDS011;1243;54.298;10.172;2022-07-10T10:02:58;5.07;;;1.63;;
2462;SDS011;1243;54.298;10.172;2022-07-10T10:05:34;4.40;;;1.33;;
2462;SDS011;1243;54.298;10.172;2022-07-10T10:08:12;5.83;;;1.70;;
2462;SDS011;1243;54.298;10.172;2022-07-10T10:10:47;2.97;;;1.37;;
2462;SDS011;1243;54.298;10.172;2022-07-10T10:13:24;6.43;;;2.20;;
2462;SDS011;1243;54.298;10.172;2022-07-10T10:15:53;5.80;;;1.77;;
2462;SDS011;1243;54.298;10.172;2022-07-10T10:18:24;2.37;;;1.27;;
2462;SDS011;1243;54.298;10.172;2022-07-10T10:20:52;4.17;;;1.80;;
2462;SDS011;1243;54.298;10.172;2022-07-10T10:23:20;4.23;;;2.00;;
2462;SDS011;1243;54.298;10.172;2022-07-10T10:25:47;4.03;;;1.30;;
2462;SDS011;1243;54.298;10.172;2022-07-10T10:28:14;5.07;;;1.30;;
2462;SDS011;1243;54.298;10.172;2022-07-10T10:30:45;3.17;;;1.57;;
2462;SDS011;1243;54.298;10.172;2022-07-10T10:36:07;7.20;;;1.60;;
2462;SDS011;1243;54.298;10.172;2022-07-10T10:49:16;5.80;;;1.53;;
2462;SDS011;1243;54.298;10.172;2022-07-10T10:51:59;10.30;;;1.50;;
2462;SDS011;1243;54.298;10.172;2022-07-10T10:54:27;5.60;;;1.40;;
2462;SDS011;1243;54.298;10.172;2022-07-10T10:59:45;3.53;;;1.60;;
2462;SDS011;1243;54.298;10.172;2022-07-10T11:02:22;6.90;;;1.60;;
2462;SDS011;1243;54.298;10.172;2022-07-10T11:05:43;2.77;;;1.33;;
2462;SDS011;1243;54.298;10.172;2022-07-10T11:07:57;5.20;;;1.50;;
2462;SDS011;1243;54.298;10.172;2022-07-10T11:12:59;4.03;;;1.40;;
2462;SDS011;1243;54.298;10.172;2022-07-10T11:15:29;3.03;;;1.30;;
2462;SDS011;1243;54.298;10.172;2022-07-10T11:17:56;2.47;;;1.67;;
2462;SDS011;1243;54.298;10.172;2022-07-10T11:20:22;3.57;;;0.90;;
2462;SDS011;1243;54.298;10.172;2022-07-10T11:22:52;4.37;;;1.23;;
2462;SDS011;1243;54.298;10.172;2022-07-10T11:25:41;3.33;;;1.47;;
2462;SDS011;1243;54.298;10.172;2022-07-10T11:28:15;2.47;;;1.10;;
2462;SDS011;1243;54.298;10.172;2022-07-10T11:30:50;3.80;;;1.30;;
2462;SDS011;1243;54.298;10.172;2022-07-10T11:33:19;4.03;;;1.43;;
2462;SDS011;1243;54.298;10.172;2022-07-10T11:35:49;3.60;;;1.10;;
2462;SDS011;1243;54.298;10.172;2022-07-10T11:38:23;3.60;;;1.47;;
2462;SDS011;1243;54.298;10.172;2022-07-10T11:40:49;4.83;;;1.50;;
2462;SDS011;1243;54.298;10.172;2022-07-10T11:43:17;2.00;;;1.27;;
2462;SDS011;1243;54.298;10.172;2022-07-10T11:45:45;2.90;;;1.40;;
2462;SDS011;1243;54.298;10.172;2022-07-10T11:48:17;4.20;;;1.37;;
2462;SDS011;1243;54.298;10.172;2022-07-10T11:50:44;3.30;;;1.50;;
2462;SDS011;1243;54.298;10.172;2022-07-10T11:53:10;3.40;;;1.27;;
2462;SDS011;1243;54.298;10.172;2022-07-10T11:55:36;4.10;;;1.00;;
2462;SDS011;1243;54.298;10.172;2022-07-10T11:58:15;1.30;;;0.67;;
2462;SDS011;1243;54.298;10.172;2022-07-10T12:00:42;2.90;;;1.07;;
2462;SDS011;1243;54.298;10.172;2022-07-10T12:03:17;2.70;;;1.40;;
2462;SDS011;1243;54.298;10.172;2022-07-10T12:05:45;3.83;;;1.13;;
2462;SDS011;1243;54.298;10.172;2022-07-10T12:08:11;2.73;;;1.13;;
2462;SDS011;1243;54.298;10.172;2022-07-10T12:10:40;4.17;;;1.50;;
2462;SDS011;1243;54.298;10.172;2022-07-10T12:13:11;4.20;;;1.10;;
2462;SDS011;1243;54.298;10.172;2022-07-10T12:15:39;3.30;;;0.90;;
2462;SDS011;1243;54.298;10.172;2022-07-10T12:18:19;2.43;;;1.30;;
2462;SDS011;1243;54.298;10.172;2022-07-10T12:20:47;3.20;;;0.90;;
2462;SDS011;1243;54.298;10.172;2022-07-10T12:23:14;2.80;;;1.03;;
2462;SDS011;1243;54.298;10.172;2022-07-10T12:25:45;5.43;;;1.17;;
2462;SDS011;1243;54.298;10.172;2022-07-10T12:28:16;2.70;;;1.07;;
2462;SDS011;1243;54.298;10.172;2022-07-10T12:30:43;4.30;;;1.20;;
2462;SDS011;1243;54.298;10.172;2022-07-10T12:33:11;7.30;;;1.43;;
2462;SDS011;1243;54.298;10.172;2022-07-10T12:35:57;5.97;;;1.50;;
2462;SDS011;1243;54.298;10.172;2022-07-10T12:38:30;4.60;;;1.33;;
2462;SDS011;1243;54.298;10.172;2022-07-10T12:41:08;5.50;;;1.23;;
2462;SDS011;1243;54.298;10.172;2022-07-10T12:43:35;4.70;;;1.27;;
2462;SDS011;1243;54.298;10.172;2022-07-10T12:46:11;2.27;;;1.73;;
2462;SDS011;1243;54.298;10.172;2022-07-10T12:51:34;2.77;;;1.13;;
2462;SDS011;1243;54.298;10.172;2022-07-10T12:54:03;3.10;;;1.57;;
2462;SDS011;1243;54.298;10.172;2022-07-10T12:56:30;2.97;;;1.37;;
2462;SDS011;1243;54.298;10.172;2022-07-10T12:58:57;3.00;;;1.00;;
2462;SDS011;1243;54.298;10.172;2022-07-10T13:01:25;3.40;;;1.10;;
2462;SDS011;1243;54.298;10.172;2022-07-10T13:03:59;3.83;;;1.23;;
2462;SDS011;1243;54.298;10.172;2022-07-10T13:08:56;1.87;;;1.10;;
2462;SDS011;1243;54.298;10.172;2022-07-10T13:11:21;3.20;;;1.10;;
2462;SDS011;1243;54.298;10.172;2022-07-10T13:13:48;4.30;;;0.97;;
2462;SDS011;1243;54.298;10.172;2022-07-10T13:16:14;1.83;;;0.90;;
2462;SDS011;1243;54.298;10.172;2022-07-10T13:18:42;5.10;;;1.00;;
2462;SDS011;1243;54.298;10.172;2022-07-10T13:21:09;2.80;;;1.10;;
2462;SDS011;1243;54.298;10.172;2022-07-10T13:23:36;3.07;;;1.03;;
2462;SDS011;1243;54.298;10.172;2022-07-10T13:26:03;2.60;;;1.17;;
2462;SDS011;1243;54.298;10.172;2022-07-10T13:28:31;4.87;;;1.00;;
2462;SDS011;1243;54.298;10.172;2022-07-10T13:30:58;2.27;;;0.90;;
2462;SDS011;1243;54.298;10.172;2022-07-10T13:33:24;11.30;;;2.07;;
2462;SDS011;1243;54.298;10.172;2022-07-10T13:35:50;2.67;;;1.00;;
2462;SDS011;1243;54.298;10.172;2022-07-10T13:38:16;6.80;;;1.63;;
2462;SDS011;1243;54.298;10.172;2022-07-10T13:40:43;6.50;;;1.50;;
2462;SDS011;1243;54.298;10.172;2022-07-10T13:43:10;5.10;;;1.80;;
2462;SDS011;1243;54.298;10.172;2022-07-10T13:45:37;4.60;;;2.23;;
2462;SDS011;1243;54.298;10.172;2022-07-10T13:48:08;3.60;;;1.17;;
2462;SDS011;1243;54.298;10.172;2022-07-10T13:50:36;6.00;;;1.90;;
2462;SDS011;1243;54.298;10.172;2022-07-10T13:53:03;5.83;;;1.50;;
2462;SDS011;1243;54.298;10.172;2022-07-10T13:55:28;2.67;;;1.60;;
2462;SDS011;1243;54.298;10.172;2022-07-10T13:57:54;4.77;;;1.40;;
2462;SDS011;1243;54.298;10.172;2022-07-10T14:00:20;7.17;;;1.40;;
2462;SDS011;1243;54.298;10.172;2022-07-10T14:02:46;4.37;;;1.40;;
2462;SDS011;1243;54.298;10.172;2022-07-10T14:05:11;3.90;;;1.33;;
2462;SDS011;1243;54.298;10.172;2022-07-10T14:07:37;4.80;;;1.33;;
2462;SDS011;1243;54.298;10.172;2022-07-10T14:10:03;3.20;;;1.27;;
2462;SDS011;1243;54.298;10.172;2022-07-10T14:12:29;3.30;;;1.50;;
2462;SDS011;1243;54.298;10.172;2022-07-10T14:14:57;6.83;;;1.60;;
2462;SDS011;1243;54.298;10.172;2022-07-10T14:17:23;3.47;;;1.23;;
2462;SDS011;1243;54.298;10.172;2022-07-10T14:19:49;8.30;;;1.10;;
2462;SDS011;1243;54.298;10.172;2022-07-10T14:22:15;7.10;;;1.70;;
2462;SDS011;1243;54.298;10.172;2022-07-10T14:24:41;6.47;;;1.67;;
2462;SDS011;1243;54.298;10.172;2022-07-10T14:27:07;1.90;;;0.90;;
2462;SDS011;1243;54.298;10.172;2022-07-10T14:29:33;2.50;;;1.73;;
2462;SDS011;1243;54.298;10.172;2022-07-10T14:31:59;1.80;;;1.20;;
2462;SDS011;1243;54.298;10.172;2022-07-10T14:34:24;3.43;;;1.07;;
2462;SDS011;1243;54.298;10.172;2022-07-10T14:36:53;1.70;;;1.00;;
2462;SDS011;1243;54.298;10.172;2022-07-10T14:39:18;5.13;;;1.17;;
2462;SDS011;1243;54.298;10.172;2022-07-10T14:41:44;1.93;;;1.00;;
2462;SDS011;1243;54.298;10.172;2022-07-10T14:44:10;3.70;;;1.23;;
2462;SDS011;1243;54.298;10.172;2022-07-10T14:46:35;4.97;;;1.30;;
2462;SDS011;1243;54.298;10.172;2022-07-10T14:49:01;2.67;;;1.00;;
2462;SDS011;1243;54.298;10.172;2022-07-10T14:51:27;2.90;;;1.30;;
2462;SDS011;1243;54.298;10.172;2022-07-10T14:53:54;4.73;;;1.57;;
2462;SDS011;1243;54.298;10.172;2022-07-10T14:56:21;3.67;;;1.20;;
2462;SDS011;1243;54.298;10.172;2022-07-10T14:58:47;3.07;;;1.73;;
2462;SDS011;1243;54.298;10.172;2022-07-10T15:01:13;7.07;;;2.17;;
2462;SDS011;1243;54.298;10.172;2022-07-10T15:03:42;1.63;;;1.40;;
2462;SDS011;1243;54.298;10.172;2022-07-10T15:06:08;1.97;;;1.20;;
2462;SDS011;1243;54.298;10.172;2022-07-10T15:08:34;2.60;;;1.40;;
2462;SDS011;1243;54.298;10.172;2022-07-10T15:11:00;5.80;;;1.20;;
2462;SDS011;1243;54.298;10.172;2022-07-10T15:13:26;6.40;;;1.30;;
2462;SDS011;1243;54.298;10.172;2022-07-10T15:15:52;2.73;;;1.30;;
2462;SDS011;1243;54.298;10.172;2022-07-10T15:18:18;5.20;;;1.60;;
2462;SDS011;1243;54.298;10.172;2022-07-10T15:20:45;1.50;;;1.23;;
2462;SDS011;1243;54.298;10.172;2022-07-10T15:23:11;5.30;;;1.43;;
2462;SDS011;1243;54.298;10.172;2022-07-10T15:25:40;3.23;;;1.50;;
2462;SDS011;1243;54.298;10.172;2022-07-10T15:28:06;2.70;;;1.50;;